Main page
METAR-TAF:

METAR-TAF

Airports :

Chicago Rockford International Airport

Rockford, Illinois, United States

latitude: 42-11-34N, longitude: 089-05-36W, elevation: 735 ft

Current weather observation

The report was made 54 minutes ago, at 18:54 UTC
Wind 3 mph from variable directions
Temperature 52°F
Humidity 40%
Pressure 30.30 in. Hg
Visibility: 10 miles
Clear sky

METAR: KRFD 241854Z VRB03KT 10SM CLR 11/M02 A3030 RMK AO2 SLP263 T01111022

Time: 14:48 (19:48 UTC)

Forecast

The report was made 2 hours and 28 minutes ago, at 17:20 UTC
Forecast valid from 24 at 18 UTC to 25 at 18 UTC
Wind 14 mph from the North
Visibility: 6 miles
Few clouds at a height of 3000 ft
From 25 at 0000 UTC
Wind 6 mph from the East
Visibility: 6 miles
Few clouds at a height of 25000 ft

TAF: KRFD 241720Z 2418/2518 01012KT P6SM FEW030 FM250000 10005KT P6SM FEW250

Weather observations and forecasts of more than 4000 airports (METAR and TAF reports).

The available stations are represented by yellow and red dots on the map.

Hover mouse over dot to see the name of the station.

Then click to see weather observations and forecasts.

To change the map : click on the green buttons with a black cross to zoom in, on the green button with a dash to zoom out, or on the green arrows for adjacent maps.


METAR-TAF: